createdAt,value
2022-08-12T00:01:13.600Z,45.48
2022-08-12T00:04:00.182Z,44.79
2022-08-12T00:06:47.521Z,44.77
2022-08-12T00:09:34.236Z,44.31
2022-08-12T00:12:21.559Z,44.39
2022-08-12T00:15:08.909Z,47.32
2022-08-12T00:17:55.150Z,47.89
2022-08-12T00:20:42.180Z,48.50
2022-08-12T00:23:28.607Z,48.15
2022-08-12T00:26:23.155Z,47.41
2022-08-12T00:29:12.634Z,47.33
2022-08-12T00:32:01.028Z,45.65
2022-08-12T00:34:51.939Z,46.44
2022-08-12T00:37:40.964Z,48.34
2022-08-12T00:40:29.842Z,46.17
2022-08-12T00:42:58.470Z,48.17
2022-08-12T00:45:26.511Z,47.82
2022-08-12T00:47:54.625Z,49.12
2022-08-12T00:50:23.301Z,48.45
2022-08-12T00:52:52.673Z,48.82
2022-08-12T00:55:21.542Z,49.03
2022-08-12T00:57:50.878Z,49.51
2022-08-12T01:00:24.210Z,48.98
2022-08-12T01:02:57.643Z,49.98
2022-08-12T01:05:45.363Z,49.76
2022-08-12T01:08:32.170Z,49.97
2022-08-12T01:11:18.358Z,49.28
2022-08-12T01:13:50.440Z,50.06
2022-08-12T01:16:22.809Z,50.19
2022-08-12T01:18:53.305Z,50.29
2022-08-12T01:21:26.743Z,51.02
2022-08-12T01:24:30.159Z,52.81
2022-08-12T01:27:01.509Z,53.34
2022-08-12T01:29:33.521Z,51.78
2022-08-12T01:32:08.992Z,50.81
2022-08-12T01:34:39.586Z,52.56
2022-08-12T01:37:09.452Z,51.10
2022-08-12T01:40:34.649Z,52.71
2022-08-12T01:42:32.678Z,52.50
2022-08-12T01:45:02.252Z,50.83
2022-08-12T01:47:49.988Z,49.41
2022-08-12T01:50:23.698Z,51.63
2022-08-12T01:52:54.220Z,52.60
2022-08-12T01:55:25.189Z,52.22
2022-08-12T01:58:14.484Z,53.08
2022-08-12T02:00:54.803Z,52.92
2022-08-12T02:04:08.030Z,53.40
2022-08-12T02:07:00.602Z,53.92
2022-08-12T02:10:49.541Z,55.43
2022-08-12T02:13:14.679Z,54.64
2022-08-12T02:15:49.836Z,55.24
2022-08-12T02:18:17.479Z,54.88
2022-08-12T02:21:02.299Z,54.86
2022-08-12T02:23:31.488Z,53.15
2022-08-12T02:26:04.851Z,53.67
2022-08-12T02:28:32.859Z,54.09
2022-08-12T02:31:06.570Z,54.71
2022-08-12T02:33:35.387Z,55.24
2022-08-12T02:36:05.328Z,55.16
2022-08-12T02:38:34.031Z,54.09
2022-08-12T02:41:03.901Z,55.11
2022-08-12T02:43:51.941Z,56.00
2022-08-12T02:46:28.043Z,58.26
2022-08-12T02:49:01.430Z,56.17
2022-08-12T02:51:39.321Z,56.13
2022-08-12T02:54:07.858Z,57.03
2022-08-12T02:56:37.959Z,57.70
2022-08-12T02:59:07.151Z,56.66
2022-08-12T03:01:47.753Z,57.26
2022-08-12T03:04:26.911Z,57.28
2022-08-12T03:07:05.109Z,56.40
2022-08-12T03:10:03.540Z,56.74
2022-08-12T03:12:25.212Z,56.70
2022-08-12T03:14:55.291Z,56.62
2022-08-12T03:17:30.511Z,56.43
2022-08-12T03:20:10.228Z,55.75
2022-08-12T03:22:42.425Z,56.34
2022-08-12T03:25:16.283Z,55.53
2022-08-12T03:27:49.943Z,56.11
2022-08-12T03:30:19.328Z,55.56
2022-08-12T03:32:49.019Z,57.97
2022-08-12T03:35:40.118Z,56.31
2022-08-12T03:38:16.213Z,59.53
2022-08-12T03:41:25.230Z,58.88
2022-08-12T03:44:25.716Z,59.32
2022-08-12T03:47:21.918Z,58.11
2022-08-12T03:50:09.580Z,58.59
2022-08-12T03:52:55.815Z,58.24
2022-08-12T03:55:42.489Z,58.60
2022-08-12T03:58:29.003Z,59.18
2022-08-12T04:00:58.770Z,58.41
2022-08-12T04:03:45.698Z,59.52
2022-08-12T04:06:15.009Z,59.48
2022-08-12T04:08:43.848Z,59.84
2022-08-12T04:11:32.199Z,59.43
2022-08-12T04:14:08.468Z,58.41
2022-08-12T04:16:36.639Z,60.31
2022-08-12T04:19:05.919Z,58.65
2022-08-12T04:21:34.196Z,58.93
2022-08-12T04:24:02.709Z,57.62
2022-08-12T04:26:30.999Z,57.51
2022-08-12T04:28:59.470Z,58.70
2022-08-12T04:31:37.979Z,57.23
2022-08-12T04:34:08.420Z,57.52
2022-08-12T04:36:38.700Z,59.99
2022-08-12T04:39:09.100Z,57.24
2022-08-12T04:41:38.104Z,57.13
2022-08-12T04:44:27.569Z,56.90
2022-08-12T04:46:56.207Z,55.43
2022-08-12T04:49:24.417Z,56.22
2022-08-12T04:51:53.705Z,59.58
2022-08-12T04:54:27.901Z,54.88
2022-08-12T04:57:03.262Z,56.75
2022-08-12T04:59:48.116Z,57.63
2022-08-12T05:02:21.134Z,55.66
2022-08-12T05:04:55.848Z,54.74
2022-08-12T05:07:24.429Z,53.87
2022-08-12T05:10:00.569Z,54.19
2022-08-12T05:12:34.719Z,53.05
2022-08-12T05:15:02.869Z,50.16
2022-08-12T05:17:47.149Z,48.88
2022-08-12T05:20:20.850Z,46.16
2022-08-12T05:22:53.277Z,46.47
2022-08-12T05:25:25.938Z,46.40
2022-08-12T05:27:58.741Z,43.67
2022-08-12T05:30:28.729Z,44.77
2022-08-12T05:32:59.888Z,43.51
2022-08-12T05:35:28.489Z,45.10
2022-08-12T05:38:14.889Z,43.63
2022-08-12T05:40:43.349Z,41.36
2022-08-12T05:43:11.670Z,42.34
2022-08-12T05:45:44.278Z,41.43
2022-08-12T05:48:13.469Z,41.23
2022-08-12T05:50:42.364Z,40.21
2022-08-12T05:53:10.180Z,41.65
2022-08-12T05:55:38.316Z,39.16
2022-08-12T05:58:07.896Z,40.07
2022-08-12T06:00:36.429Z,41.06
2022-08-12T06:03:06.242Z,39.80
2022-08-12T06:05:43.243Z,39.48
2022-08-12T06:08:24.180Z,36.73
2022-08-12T06:10:52.320Z,35.76
2022-08-12T06:13:27.942Z,37.17
2022-08-12T06:15:57.398Z,35.83
2022-08-12T06:18:29.654Z,37.34
2022-08-12T06:21:01.889Z,36.88
2022-08-12T06:23:30.598Z,35.01
2022-08-12T06:25:59.277Z,34.82
2022-08-12T06:28:28.251Z,33.70
2022-08-12T06:31:24.405Z,33.48
2022-08-12T06:33:59.593Z,34.53
2022-08-12T06:36:33.850Z,33.21
2022-08-12T06:39:01.988Z,33.76
2022-08-12T06:42:04.921Z,33.68
2022-08-12T06:44:36.700Z,32.48
2022-08-12T06:47:04.368Z,33.35
2022-08-12T06:49:36.874Z,33.34
2022-08-12T06:52:05.154Z,33.36
2022-08-12T06:54:33.389Z,32.68
2022-08-12T06:57:04.669Z,32.36
2022-08-12T06:59:35.691Z,32.44
2022-08-12T07:02:03.475Z,30.61
2022-08-12T07:04:37.792Z,31.06
2022-08-12T07:07:10.458Z,31.20
2022-08-12T07:10:07.088Z,30.75
2022-08-12T07:12:29.009Z,31.41
2022-08-12T07:14:58.406Z,30.36
2022-08-12T07:17:36.425Z,31.54
2022-08-12T07:20:06.810Z,32.44
2022-08-12T07:22:34.719Z,31.59
2022-08-12T07:25:21.289Z,31.53
2022-08-12T07:27:53.871Z,31.85
2022-08-12T07:30:23.262Z,31.48
2022-08-12T07:32:51.828Z,31.43
2022-08-12T07:35:20.541Z,30.13
2022-08-12T07:37:50.583Z,29.72
2022-08-12T07:40:19.421Z,30.11
2022-08-12T07:42:47.299Z,29.55
2022-08-12T07:45:15.460Z,28.90
2022-08-12T07:47:43.760Z,29.80
2022-08-12T07:50:14.050Z,31.74
2022-08-12T07:52:44.452Z,28.66
2022-08-12T07:55:13.631Z,28.86
2022-08-12T07:57:53.511Z,29.17
2022-08-12T08:00:22.034Z,27.22
2022-08-12T08:02:50.530Z,26.68
2022-08-12T08:05:19.735Z,27.75
2022-08-12T08:07:47.623Z,28.90
2022-08-12T08:10:16.821Z,28.50
2022-08-12T08:12:58.948Z,28.48
2022-08-12T08:16:00.757Z,28.58
2022-08-12T08:18:26.196Z,26.93
2022-08-12T08:20:57.099Z,28.63
2022-08-12T08:23:46.470Z,26.51
2022-08-12T08:26:16.629Z,25.96
2022-08-12T08:28:44.485Z,27.83
2022-08-12T08:31:14.494Z,26.83
2022-08-12T08:34:09.460Z,25.83
2022-08-12T08:36:30.583Z,27.58
2022-08-12T08:38:59.038Z,26.10
2022-08-12T08:42:14.156Z,28.73
2022-08-12T08:44:39.721Z,25.94
2022-08-12T08:47:09.234Z,26.46
2022-08-12T08:49:38.230Z,26.31
2022-08-12T08:52:07.722Z,27.41
2022-08-12T08:54:37.840Z,25.34
2022-08-12T08:57:08.542Z,27.15
2022-08-12T08:59:36.640Z,28.11
2022-08-12T09:02:04.779Z,26.05
2022-08-12T09:05:12.131Z,26.26
2022-08-12T09:07:51.777Z,25.59
2022-08-12T09:10:30.495Z,25.87
2022-08-12T09:13:23.218Z,25.65
2022-08-12T09:15:59.401Z,26.02
2022-08-12T09:18:33.272Z,26.48
2022-08-12T09:30:11.626Z,25.68
2022-08-12T09:32:55.969Z,25.91
2022-08-12T09:35:07.141Z,23.97
2022-08-12T09:37:58.953Z,24.38
2022-08-12T09:41:01.690Z,24.43
2022-08-12T09:43:38.019Z,25.94
2022-08-12T09:46:25.477Z,25.66
2022-08-12T09:48:56.765Z,25.98
2022-08-12T09:51:37.733Z,23.85
2022-08-12T09:54:34.191Z,22.67
2022-08-12T09:58:05.711Z,22.27
2022-08-12T10:00:17.195Z,24.04
2022-08-12T10:02:45.528Z,23.19
2022-08-12T10:05:20.565Z,24.04
2022-08-12T10:07:48.590Z,24.29
2022-08-12T10:10:24.598Z,24.27
2022-08-12T10:13:37.440Z,24.60
2022-08-12T10:16:18.767Z,23.60
2022-08-12T10:18:56.465Z,22.67
2022-08-12T10:21:37.590Z,23.39
2022-08-12T10:24:20.285Z,21.92
2022-08-12T10:27:08.066Z,21.07
2022-08-12T10:30:38.427Z,22.96
2022-08-12T10:32:44.133Z,22.55
2022-08-12T10:35:15.907Z,21.61
2022-08-12T10:38:39.228Z,22.42
2022-08-12T10:40:37.671Z,22.34
2022-08-12T10:43:24.741Z,21.77
2022-08-12T10:45:53.930Z,20.87
2022-08-12T10:48:33.924Z,22.17
2022-08-12T10:52:03.875Z,22.04
2022-08-12T10:54:00.334Z,21.80
2022-08-12T10:56:34.249Z,21.55
2022-08-12T10:59:05.510Z,21.97
2022-08-12T11:04:18.849Z,22.31
2022-08-12T11:04:41.484Z,22.43
2022-08-12T11:08:35.166Z,21.67
2022-08-12T11:10:02.823Z,22.18
2022-08-12T11:12:56.223Z,23.21
2022-08-12T11:15:32.972Z,23.98
2022-08-12T11:18:17.841Z,23.18
2022-08-12T11:20:48.559Z,24.03
2022-08-12T11:23:25.633Z,22.86
2022-08-12T11:26:07.395Z,23.29
2022-08-12T11:28:37.207Z,22.89
2022-08-12T11:31:09.930Z,24.40
2022-08-12T11:34:04.590Z,24.46
2022-08-12T11:36:30.598Z,24.39
2022-08-12T11:38:58.819Z,24.00
2022-08-12T11:41:34.895Z,25.41
2022-08-12T11:44:35.837Z,25.45
2022-08-12T11:46:54.519Z,25.33
2022-08-12T11:49:31.436Z,24.76
2022-08-12T11:52:02.147Z,25.00
2022-08-12T11:54:31.128Z,25.11
2022-08-12T11:57:02.272Z,24.22
2022-08-12T12:02:21.482Z,23.30
2022-08-12T12:04:52.654Z,22.78
2022-08-12T12:08:36.169Z,23.80
2022-08-12T12:10:14.644Z,22.42
2022-08-12T12:12:50.011Z,23.83
2022-08-12T12:15:25.424Z,23.94
2022-08-12T12:18:07.148Z,25.27
2022-08-12T12:20:35.520Z,25.52
2022-08-12T12:23:04.158Z,25.04
2022-08-12T12:25:59.485Z,25.32
2022-08-12T12:28:36.891Z,25.73
2022-08-12T12:31:15.220Z,25.88
2022-08-12T12:33:58.369Z,27.05
2022-08-12T12:36:30.193Z,27.46
2022-08-12T12:38:59.965Z,27.22
2022-08-12T12:42:41.769Z,27.96
2022-08-12T12:44:26.088Z,26.35
2022-08-12T12:47:29.250Z,27.62
2022-08-12T12:49:54.415Z,25.76
2022-08-12T12:52:26.878Z,24.78
2022-08-12T12:54:55.938Z,25.46
2022-08-12T12:57:58.810Z,24.24
2022-08-12T13:00:17.765Z,24.56
2022-08-12T13:02:55.620Z,24.40
2022-08-12T13:05:28.277Z,24.50
2022-08-12T13:08:01.260Z,24.02
2022-08-12T13:10:36.843Z,23.67
2022-08-12T13:14:06.439Z,23.13
2022-08-12T13:15:59.324Z,22.69
2022-08-12T13:18:31.637Z,23.81
2022-08-12T13:21:00.041Z,22.34
2022-08-12T13:23:36.207Z,21.60
2022-08-12T13:26:05.113Z,23.16
2022-08-12T13:28:33.043Z,20.73
2022-08-12T13:31:00.883Z,20.50
2022-08-12T13:34:28.479Z,19.75
2022-08-12T13:36:20.694Z,20.96
2022-08-12T13:38:54.325Z,20.21
2022-08-12T13:41:35.825Z,21.34
2022-08-12T13:44:06.925Z,21.82
2022-08-12T13:46:41.030Z,22.91
2022-08-12T13:49:17.452Z,23.38
2022-08-12T13:51:54.379Z,24.04
2022-08-12T13:54:22.606Z,23.11
2022-08-12T13:56:51.523Z,22.00
2022-08-12T13:59:24.840Z,23.02
2022-08-12T14:01:56.655Z,24.93
2022-08-12T14:04:25.205Z,23.62
2022-08-12T14:06:55.558Z,24.11
2022-08-12T14:09:23.465Z,23.98
2022-08-12T14:11:59.306Z,23.32
2022-08-12T14:14:31.317Z,23.93
2022-08-12T14:17:08.287Z,25.77
2022-08-12T14:19:48.562Z,24.75
2022-08-12T14:22:26.106Z,24.39
2022-08-12T14:24:54.376Z,24.38
2022-08-12T14:28:03.591Z,25.24
2022-08-12T14:30:29.082Z,24.81
2022-08-12T14:33:03.410Z,25.61
2022-08-12T14:35:41.006Z,26.13
2022-08-12T14:38:24.216Z,25.99
2022-08-12T14:41:00.178Z,25.89
2022-08-12T14:43:58.990Z,25.75
2022-08-12T14:46:23.538Z,24.51
2022-08-12T14:48:53.329Z,24.80
2022-08-12T14:52:44.082Z,24.28
2022-08-12T14:57:20.525Z,23.97
2022-08-12T15:00:07.467Z,23.42
2022-08-12T15:02:38.336Z,23.85
2022-08-12T15:05:08.270Z,23.56
2022-08-12T15:07:48.846Z,23.49
2022-08-12T15:10:25.119Z,23.75
2022-08-12T15:13:07.392Z,23.95
2022-08-12T15:15:43.991Z,24.74
2022-08-12T15:18:21.609Z,24.84
2022-08-12T15:20:55.599Z,24.89
2022-08-12T15:23:29.241Z,23.94
2022-08-12T15:26:11.582Z,24.40
2022-08-12T15:28:53.880Z,25.25
2022-08-12T15:31:28.332Z,24.78
2022-08-12T15:34:12.168Z,23.92
2022-08-12T15:36:54.262Z,24.04
2022-08-12T15:39:23.170Z,23.90
2022-08-12T15:41:55.477Z,24.01
2022-08-12T15:44:38.337Z,24.11
2022-08-12T15:47:10.827Z,24.49
2022-08-12T15:49:54.418Z,24.81
2022-08-12T15:52:29.210Z,24.85
2022-08-12T15:55:06.012Z,24.76
2022-08-12T15:57:34.945Z,25.68
2022-08-12T16:00:07.260Z,24.66
2022-08-12T16:02:47.341Z,24.86
2022-08-12T16:06:12.799Z,24.98
2022-08-12T16:08:19.762Z,25.57
2022-08-12T16:10:53.284Z,25.26
2022-08-12T16:13:25.425Z,26.50
2022-08-12T16:16:22.704Z,26.55
2022-08-12T16:18:56.438Z,27.08
2022-08-12T16:21:51.622Z,26.80
2022-08-12T16:24:14.455Z,26.85
2022-08-12T16:26:45.210Z,25.75
2022-08-12T16:29:24.666Z,26.01
2022-08-12T16:31:54.515Z,26.57
2022-08-12T16:34:25.666Z,27.49
2022-08-12T16:37:13.833Z,28.92
2022-08-12T16:39:59.779Z,28.61
2022-08-12T16:42:28.949Z,28.72
2022-08-12T16:45:01.937Z,28.61
2022-08-12T16:47:57.639Z,29.63
2022-08-12T16:50:30.944Z,29.40
2022-08-12T16:53:02.435Z,29.67
2022-08-12T16:55:42.257Z,29.94
2022-08-12T16:58:28.510Z,30.01
2022-08-12T17:01:03.050Z,30.44
2022-08-12T17:03:36.610Z,30.50
2022-08-12T17:06:09.802Z,30.70
2022-08-12T17:08:38.683Z,31.45
2022-08-12T17:11:17.938Z,31.06
2022-08-12T17:13:53.225Z,31.21
2022-08-12T17:16:24.126Z,30.56
2022-08-12T17:18:59.588Z,30.45
2022-08-12T17:21:40.638Z,30.63
2022-08-12T17:24:21.750Z,30.52
2022-08-12T17:26:54.061Z,30.65
2022-08-12T17:29:24.188Z,31.05
2022-08-12T17:32:03.021Z,31.30
2022-08-12T17:34:52.493Z,30.92
2022-08-12T17:37:20.284Z,31.66
2022-08-12T17:40:15.396Z,31.90
2022-08-12T17:42:48.442Z,31.33
2022-08-12T17:45:20.150Z,31.37
2022-08-12T17:48:01.312Z,32.25
2022-08-12T17:50:38.149Z,34.37
2022-08-12T17:53:08.092Z,32.89
2022-08-12T17:55:47.458Z,32.94
2022-08-12T17:58:35.829Z,32.31
2022-08-12T18:01:10.931Z,33.18
2022-08-12T18:03:58.296Z,33.15
2022-08-12T18:06:32.180Z,34.43
2022-08-12T18:09:09.358Z,34.20
2022-08-12T18:12:05.070Z,35.20
2022-08-12T18:14:40.925Z,35.12
2022-08-12T18:17:10.148Z,35.63
2022-08-12T18:20:03.608Z,36.17
2022-08-12T18:22:39.409Z,35.12
2022-08-12T18:26:12.730Z,36.90
2022-08-12T18:28:12.322Z,36.45
2022-08-12T18:30:53.003Z,36.25
2022-08-12T18:33:25.558Z,36.86
2022-08-12T18:35:55.646Z,37.31
2022-08-12T18:38:25.791Z,38.14
2022-08-12T18:41:21.759Z,38.06
2022-08-12T18:43:59.833Z,38.86
2022-08-12T18:46:46.918Z,39.82
2022-08-12T18:49:23.722Z,41.00
2022-08-12T18:52:04.690Z,40.69
2022-08-12T18:54:52.880Z,40.90
2022-08-12T18:58:07.267Z,40.72
2022-08-12T19:00:21.034Z,40.50
2022-08-12T19:02:53.340Z,41.56
2022-08-12T19:05:23.711Z,42.39
2022-08-12T19:08:12.080Z,43.21
2022-08-12T19:10:42.329Z,42.44
2022-08-12T19:13:39.600Z,42.97
2022-08-12T19:16:12.722Z,42.54
2022-08-12T19:18:44.535Z,43.50
2022-08-12T19:21:16.603Z,42.73
2022-08-12T19:24:08.888Z,43.21
2022-08-12T19:26:37.870Z,43.73
2022-08-12T19:29:08.315Z,44.31
2022-08-12T19:31:58.883Z,44.42
2022-08-12T19:38:02.602Z,44.75
2022-08-12T19:40:31.784Z,45.23
2022-08-12T19:43:17.823Z,47.06
2022-08-12T19:45:57.846Z,46.44
2022-08-12T19:48:32.836Z,45.73
2022-08-12T19:51:09.188Z,46.01
2022-08-12T19:53:57.803Z,45.69
2022-08-12T19:56:28.346Z,46.08
2022-08-12T19:59:19.148Z,46.32
2022-08-12T20:02:02.488Z,46.31
2022-08-12T20:04:39.291Z,46.61
2022-08-12T20:07:23.475Z,46.51
2022-08-12T20:09:54.173Z,47.22
2022-08-12T20:12:30.956Z,47.15
2022-08-12T20:15:05.228Z,47.23
2022-08-12T20:17:36.259Z,47.93
2022-08-12T20:20:19.112Z,47.55
2022-08-12T20:22:48.648Z,47.42
2022-08-12T20:25:18.368Z,47.61
2022-08-12T20:28:04.853Z,47.66
2022-08-12T20:30:52.446Z,49.02
2022-08-12T20:33:50.349Z,48.44
2022-08-12T20:36:41.722Z,48.06
2022-08-12T20:39:23.471Z,47.90
2022-08-12T20:41:58.804Z,48.43
2022-08-12T20:44:27.034Z,48.16
2022-08-12T20:47:18.289Z,48.31
2022-08-12T20:49:54.983Z,48.75
2022-08-12T20:52:29.118Z,50.95
2022-08-12T20:54:58.282Z,49.17
2022-08-12T20:57:37.954Z,48.43
2022-08-12T21:00:16.265Z,48.51
2022-08-12T21:02:50.038Z,49.13
2022-08-12T21:05:41.264Z,48.62
2022-08-12T21:08:27.902Z,47.94
2022-08-12T21:10:58.976Z,48.75
2022-08-12T21:13:27.463Z,49.55
2022-08-12T21:16:01.272Z,48.38
2022-08-12T21:18:30.654Z,50.16
2022-08-12T21:20:59.525Z,49.01
2022-08-12T21:23:30.888Z,49.89
2022-08-12T21:26:16.123Z,48.63
2022-08-12T21:28:58.827Z,48.14
2022-08-12T21:32:39.687Z,49.54
2022-08-12T21:34:26.228Z,48.51
2022-08-12T21:37:13.264Z,48.72
2022-08-12T21:39:56.477Z,48.72
2022-08-12T21:42:27.770Z,47.92
2022-08-12T21:45:45.778Z,47.72
2022-08-12T21:47:46.363Z,47.91
2022-08-12T21:50:14.237Z,48.22
2022-08-12T21:52:42.573Z,48.79
2022-08-12T21:55:18.404Z,50.63
2022-08-12T21:57:53.290Z,48.88
2022-08-12T22:00:33.507Z,49.38
2022-08-12T22:04:01.929Z,49.38
2022-08-12T22:06:20.279Z,49.70
2022-08-12T22:09:03.972Z,49.32
2022-08-12T22:11:42.052Z,47.82
2022-08-12T22:14:21.395Z,48.64
2022-08-12T22:16:53.632Z,47.89
2022-08-12T22:19:22.863Z,48.48
2022-08-12T22:21:53.813Z,46.72
2022-08-12T22:24:27.076Z,45.86
2022-08-12T22:27:08.042Z,47.46
2022-08-12T22:30:06.959Z,47.59
2022-08-12T22:32:38.894Z,46.19
2022-08-12T22:35:29.295Z,48.55
2022-08-12T22:38:10.774Z,47.50
2022-08-12T22:40:45.997Z,47.83
2022-08-12T22:43:35.309Z,47.91
2022-08-12T22:46:09.899Z,49.41
2022-08-12T22:48:37.659Z,48.27
2022-08-12T22:51:20.308Z,48.93
2022-08-12T22:53:53.832Z,48.66
2022-08-12T22:56:31.021Z,48.91
2022-08-12T22:59:02.861Z,50.55
2022-08-12T23:01:51.982Z,50.68
2022-08-12T23:04:27.994Z,50.04
2022-08-12T23:06:59.559Z,49.49
2022-08-12T23:09:44.747Z,49.47
2022-08-12T23:12:39.205Z,50.01
2022-08-12T23:15:09.703Z,49.43
2022-08-12T23:17:40.450Z,48.90
2022-08-12T23:20:11.068Z,47.97
2022-08-12T23:22:40.203Z,47.47
2022-08-12T23:25:18.673Z,45.82
2022-08-12T23:28:06.411Z,47.81
2022-08-12T23:31:04.579Z,47.47
2022-08-12T23:34:01.818Z,46.00
2022-08-12T23:36:31.673Z,46.79
2022-08-12T23:40:13.941Z,46.20
2022-08-12T23:42:17.867Z,47.00
2022-08-12T23:44:52.597Z,48.38
2022-08-12T23:47:23.207Z,47.32
2022-08-12T23:49:57.959Z,48.33
2022-08-12T23:52:28.532Z,47.14
2022-08-12T23:55:24.202Z,47.39
2022-08-12T23:58:20.653Z,46.11
